Time;durP1;ratioP1;P1;durP2;ratioP2;P2;SDS_P1;SDS_P2;PMS_P1;PMS_P2;Temp;Humidity;BMP_temperature;BMP_pressure;BME280_temperature;BME280_humidity;BME280_pressure;Samples;Min_cycle;Max_cycle;Signal;HPM_P1;HPM_P2
2023/04/11 00:00:33;;;;;;;12.70;2.65;;;6.10;99.90;;;;;;5125463;27;20440;-74
2023/04/11 00:03:01;;;;;;;12.02;2.78;;;6.10;99.90;;;;;;5109578;27;20023;-74
2023/04/11 00:05:30;;;;;;;14.85;3.25;;;6.00;99.90;;;;;;5114292;28;20138;-74
2023/04/11 00:07:55;;;;;;;13.15;2.40;;;6.00;99.90;;;;;;5097991;27;20076;-73
2023/04/11 00:10:21;;;;;;;15.77;3.28;;;6.00;99.90;;;;;;5134245;27;20027;-74
2023/04/11 00:12:47;;;;;;;13.80;2.63;;;6.00;99.90;;;;;;5134450;27;20369;-74
2023/04/11 00:15:15;;;;;;;12.60;2.83;;;5.90;99.90;;;;;;5135071;27;20027;-75
2023/04/11 00:17:44;;;;;;;12.95;3.08;;;5.90;99.90;;;;;;5133624;27;20482;-75
2023/04/11 00:20:11;;;;;;;9.70;2.20;;;6.00;99.90;;;;;;5115555;27;20159;-75
2023/04/11 00:22:37;;;;;;;11.05;2.97;;;6.00;99.90;;;;;;5132098;27;20051;-75
2023/04/11 00:25:04;;;;;;;15.73;2.65;;;6.00;99.90;;;;;;5134479;27;20083;-74
2023/04/11 00:27:30;;;;;;;9.43;2.17;;;6.00;99.90;;;;;;5133892;27;20023;-75
2023/04/11 00:29:56;;;;;;;13.02;2.75;;;5.90;99.90;;;;;;5133515;27;20027;-75
2023/04/11 00:32:23;;;;;;;15.00;2.38;;;5.90;99.90;;;;;;5134032;27;20019;-75
2023/04/11 00:34:50;;;;;;;10.18;2.08;;;5.90;99.90;;;;;;5133288;27;20123;-75
2023/04/11 00:37:16;;;;;;;9.23;2.90;;;5.90;99.90;;;;;;5133641;27;20019;-75
2023/04/11 00:39:44;;;;;;;10.07;2.47;;;5.90;99.90;;;;;;5133113;27;20039;-75
2023/04/11 00:42:10;;;;;;;9.77;2.50;;;5.90;99.90;;;;;;5128947;27;20142;-73
2023/04/11 00:44:36;;;;;;;11.32;2.60;;;5.90;99.90;;;;;;5124014;27;20098;-75
2023/04/11 00:47:05;;;;;;;10.55;1.83;;;5.90;99.90;;;;;;5114765;27;20042;-74
2023/04/11 00:49:31;;;;;;;17.20;2.42;;;6.00;99.90;;;;;;5114783;27;20023;-75
2023/04/11 00:52:00;;;;;;;12.25;2.15;;;6.00;99.90;;;;;;5118576;27;20427;-74
2023/04/11 00:54:28;;;;;;;16.55;2.95;;;5.90;99.90;;;;;;5133172;27;20046;-74
2023/04/11 00:57:02;;;;;;;17.20;2.50;;;5.90;99.90;;;;;;5132530;27;20080;-74
2023/04/11 00:59:29;;;;;;;8.55;2.05;;;5.90;99.90;;;;;;5132966;27;20528;-75
2023/04/11 01:01:55;;;;;;;12.43;2.53;;;5.90;99.90;;;;;;5132648;27;20098;-74
2023/04/11 01:04:21;;;;;;;12.27;2.35;;;5.90;99.90;;;;;;5114463;27;20035;-74
2023/04/11 01:06:54;;;;;;;10.05;2.38;;;5.90;99.90;;;;;;5132597;27;20057;-74
2023/04/11 01:09:22;;;;;;;14.30;3.40;;;5.90;99.90;;;;;;5132964;27;20050;-75
2023/04/11 01:11:49;;;;;;;9.55;2.38;;;5.90;99.90;;;;;;5132455;27;20133;-75
2023/04/11 01:14:16;;;;;;;12.57;2.30;;;5.90;99.90;;;;;;5118976;27;20476;-74
2023/04/11 01:16:45;;;;;;;13.25;3.10;;;5.90;99.90;;;;;;5114384;27;20027;-74
2023/04/11 01:19:17;;;;;;;12.05;2.60;;;5.90;99.90;;;;;;5132180;27;20121;-73
2023/04/11 01:21:45;;;;;;;14.65;3.15;;;5.90;99.90;;;;;;5132195;27;20034;-73
2023/04/11 01:24:11;;;;;;;14.00;2.53;;;5.90;99.90;;;;;;5132622;27;20043;-73
2023/04/11 01:26:37;;;;;;;11.02;2.35;;;5.90;99.90;;;;;;5132354;27;20035;-76
2023/04/11 01:29:03;;;;;;;14.57;3.00;;;5.90;99.90;;;;;;5111895;27;20031;-73
2023/04/11 01:31:28;;;;;;;12.15;2.85;;;5.90;99.90;;;;;;5121134;27;20023;-74
2023/04/11 01:33:54;;;;;;;13.38;2.92;;;5.90;99.90;;;;;;5115998;27;20028;-73
2023/04/11 01:36:20;;;;;;;11.77;2.78;;;6.00;99.90;;;;;;5121043;27;20452;-74
2023/04/11 01:38:46;;;;;;;14.38;2.67;;;6.00;99.90;;;;;;5131713;27;20041;-75
2023/04/11 01:41:14;;;;;;;12.07;2.33;;;6.00;99.90;;;;;;5132420;27;20610;-75
2023/04/11 01:43:40;;;;;;;17.23;3.67;;;6.00;99.90;;;;;;5132014;27;20035;-74
2023/04/11 01:46:06;;;;;;;15.40;2.30;;;6.00;99.90;;;;;;5113833;27;20488;-74
2023/04/11 01:48:35;;;;;;;10.45;2.38;;;6.10;99.90;;;;;;5113817;27;20534;-74
2023/04/11 01:51:01;;;;;;;11.55;2.40;;;6.00;99.90;;;;;;5132146;27;20113;-74
2023/04/11 01:53:27;;;;;;;13.13;2.72;;;6.00;99.90;;;;;;5132600;27;20098;-74
2023/04/11 01:55:53;;;;;;;11.18;2.38;;;6.00;99.90;;;;;;5113316;27;20583;-74
2023/04/11 01:58:18;;;;;;;14.93;2.47;;;6.00;99.90;;;;;;5114121;28;20027;-74
2023/04/11 02:00:44;;;;;;;17.58;3.28;;;6.00;99.90;;;;;;5131883;27;20035;-74
2023/04/11 02:03:10;;;;;;;13.43;2.22;;;6.00;99.90;;;;;;5132153;27;20083;-74
2023/04/11 02:05:35;;;;;;;18.48;3.40;;;6.10;99.90;;;;;;5132410;27;20027;-74
2023/04/11 02:08:01;;;;;;;15.25;2.53;;;6.10;99.90;;;;;;5131758;27;20088;-74
2023/04/11 02:10:27;;;;;;;15.02;2.97;;;6.10;99.90;;;;;;5132124;27;20031;-74
2023/04/11 02:12:53;;;;;;;12.02;1.98;;;6.10;99.90;;;;;;5113219;27;20365;-75
2023/04/11 02:15:18;;;;;;;12.98;2.38;;;6.10;99.90;;;;;;5132421;27;20132;-74
2023/04/11 02:17:44;;;;;;;15.80;2.33;;;6.10;99.90;;;;;;5131403;27;20027;-75
2023/04/11 02:20:15;;;;;;;13.13;2.97;;;6.10;99.90;;;;;;5113460;27;20043;-74
2023/04/11 02:22:41;;;;;;;11.68;2.15;;;6.10;99.90;;;;;;5131838;27;20127;-78
2023/04/11 02:25:07;;;;;;;15.85;3.15;;;6.10;99.90;;;;;;5132393;27;20047;-74
2023/04/11 02:27:33;;;;;;;15.40;2.90;;;6.10;99.90;;;;;;5113674;27;20091;-73
2023/04/11 02:30:00;;;;;;;12.52;2.40;;;6.10;99.90;;;;;;5112992;27;20243;-74
2023/04/11 02:32:26;;;;;;;16.75;2.88;;;6.10;99.90;;;;;;5132148;27;20023;-74
2023/04/11 02:34:52;;;;;;;20.50;2.97;;;6.20;99.90;;;;;;5113076;27;20059;-74
2023/04/11 02:37:18;;;;;;;11.98;2.58;;;6.20;99.90;;;;;;5132284;27;20111;-74
2023/04/11 02:39:44;;;;;;;10.15;2.20;;;6.20;99.90;;;;;;5131257;27;20122;-74
2023/04/11 02:42:12;;;;;;;11.32;2.55;;;6.30;99.90;;;;;;5131960;28;20034;-74
2023/04/11 02:44:37;;;;;;;18.08;2.42;;;6.20;99.90;;;;;;5132577;27;20023;-74
2023/04/11 02:47:03;;;;;;;13.90;2.95;;;6.20;99.90;;;;;;5119477;27;20433;-75
2023/04/11 02:49:29;;;;;;;12.02;2.47;;;6.30;99.90;;;;;;5138429;27;20114;-74
2023/04/11 02:51:55;;;;;;;10.48;2.20;;;6.30;99.90;;;;;;5137385;27;20031;-75
2023/04/11 02:54:20;;;;;;;14.25;2.53;;;6.20;99.90;;;;;;5138068;27;20045;-74
2023/04/11 02:56:46;;;;;;;11.77;2.25;;;6.20;99.90;;;;;;5137572;27;20076;-75
2023/04/11 02:59:12;;;;;;;11.65;2.17;;;6.20;99.90;;;;;;5119810;27;20039;-74
2023/04/11 03:01:37;;;;;;;17.83;2.50;;;6.20;99.90;;;;;;5138063;27;20019;-75
2023/04/11 03:04:03;;;;;;;14.00;2.72;;;6.20;99.90;;;;;;5137797;27;20015;-75
2023/04/11 03:06:29;;;;;;;13.20;2.60;;;6.20;99.90;;;;;;5138566;27;20024;-75
2023/04/11 03:08:55;;;;;;;13.63;2.80;;;6.10;99.90;;;;;;5138037;27;20038;-75
2023/04/11 03:11:21;;;;;;;12.40;2.40;;;6.10;99.90;;;;;;5138401;27;20068;-74
2023/04/11 03:13:46;;;;;;;10.35;2.50;;;6.20;99.90;;;;;;5137859;27;20028;-75
2023/04/11 03:16:13;;;;;;;12.95;2.58;;;6.20;99.90;;;;;;5138097;27;20115;-74
2023/04/11 03:18:39;;;;;;;9.32;2.70;;;6.20;99.90;;;;;;5138056;27;20027;-74
2023/04/11 03:21:06;;;;;;;16.83;2.60;;;6.20;99.90;;;;;;5137445;27;20043;-75
2023/04/11 03:23:32;;;;;;;11.25;2.35;;;6.20;99.90;;;;;;5137604;27;20054;-74
2023/04/11 03:25:59;;;;;;;10.13;2.17;;;6.20;99.90;;;;;;5137196;27;20042;-74
2023/04/11 03:28:26;;;;;;;13.77;2.30;;;6.10;99.90;;;;;;5137754;27;20047;-74
2023/04/11 03:30:53;;;;;;;8.57;1.92;;;6.10;99.90;;;;;;5137300;27;20023;-73
2023/04/11 03:33:19;;;;;;;13.50;2.50;;;6.10;99.90;;;;;;5137869;27;20040;-74
2023/04/11 03:35:45;;;;;;;9.98;1.90;;;6.10;99.90;;;;;;5137627;27;20019;-78
2023/04/11 03:38:11;;;;;;;10.73;2.10;;;6.10;99.90;;;;;;5137536;27;20029;-74
2023/04/11 03:40:36;;;;;;;8.95;2.00;;;6.00;99.90;;;;;;5137858;27;20054;-74
2023/04/11 03:43:02;;;;;;;9.13;2.15;;;6.00;99.90;;;;;;5101766;27;20035;-74
2023/04/11 03:45:28;;;;;;;8.60;2.42;;;6.00;99.90;;;;;;5137861;27;20381;-74
2023/04/11 03:47:53;;;;;;;10.95;1.88;;;6.00;99.90;;;;;;5137563;27;20050;-73
2023/04/11 03:50:19;;;;;;;16.27;2.60;;;5.90;99.90;;;;;;5137955;27;20110;-74
2023/04/11 03:52:45;;;;;;;18.75;3.13;;;5.90;99.90;;;;;;5137409;27;20060;-77
2023/04/11 03:55:11;;;;;;;10.43;1.90;;;5.90;99.90;;;;;;5137509;27;20444;-74
2023/04/11 03:57:36;;;;;;;9.02;1.92;;;5.90;99.90;;;;;;5134306;27;20019;-74
2023/04/11 04:00:04;;;;;;;8.05;1.85;;;5.90;99.90;;;;;;5133736;27;20031;-73
2023/04/11 04:02:30;;;;;;;18.45;2.00;;;5.90;99.90;;;;;;5134380;27;20095;-74
2023/04/11 04:04:58;;;;;;;15.85;3.40;;;5.90;99.90;;;;;;5133548;27;20471;-74
2023/04/11 04:07:25;;;;;;;11.75;2.20;;;5.90;99.90;;;;;;5134044;27;20474;-73
2023/04/11 04:09:51;;;;;;;12.40;2.28;;;5.80;99.90;;;;;;5133941;27;20023;-74
2023/04/11 04:12:19;;;;;;;12.52;2.13;;;5.70;99.90;;;;;;5134186;27;20144;-74
2023/04/11 04:14:45;;;;;;;9.20;2.22;;;5.70;99.90;;;;;;5134488;27;20034;-73
2023/04/11 04:17:13;;;;;;;7.07;1.73;;;5.70;99.90;;;;;;5133398;27;20106;-74
2023/04/11 04:19:39;;;;;;;10.45;2.03;;;5.70;99.90;;;;;;5133941;27;20049;-74
2023/04/11 04:22:10;;;;;;;10.40;1.42;;;5.70;99.90;;;;;;5133715;27;20031;-74
2023/04/11 04:24:38;;;;;;;12.95;2.20;;;5.70;99.90;;;;;;5134376;27;20035;-75
2023/04/11 04:27:09;;;;;;;6.45;1.48;;;5.70;99.90;;;;;;5133998;27;20110;-75
2023/04/11 04:29:45;;;;;;;9.07;1.83;;;5.70;99.90;;;;;;5134958;27;20436;-75
2023/04/11 04:32:19;;;;;;;9.27;2.05;;;5.70;99.90;;;;;;5134264;27;20360;-75
2023/04/11 04:34:53;;;;;;;12.27;2.28;;;5.70;99.90;;;;;;5133841;27;20514;-75
2023/04/11 04:37:21;;;;;;;12.82;1.85;;;5.60;99.90;;;;;;5133817;27;20459;-75
2023/04/11 04:39:54;;;;;;;11.88;2.00;;;5.70;99.90;;;;;;5133816;27;20027;-74
2023/04/11 04:42:22;;;;;;;14.95;1.98;;;5.70;99.90;;;;;;5133461;27;20395;-74
2023/04/11 04:44:48;;;;;;;9.10;1.80;;;5.60;99.90;;;;;;5133791;27;20031;-74
2023/04/11 04:47:14;;;;;;;9.57;1.65;;;5.70;99.90;;;;;;5133024;27;20070;-74
2023/04/11 04:49:41;;;;;;;8.55;2.00;;;5.70;99.90;;;;;;5133355;27;20085;-74
2023/04/11 04:52:06;;;;;;;9.88;1.80;;;5.60;99.90;;;;;;5132396;27;20023;-74
2023/04/11 04:54:32;;;;;;;11.48;2.17;;;5.70;99.90;;;;;;5133199;27;20453;-74
2023/04/11 04:56:58;;;;;;;7.30;2.42;;;5.70;99.90;;;;;;5132608;27;20431;-75
2023/04/11 04:59:24;;;;;;;14.32;2.60;;;5.80;99.90;;;;;;5133161;27;20072;-75
2023/04/11 05:01:50;;;;;;;12.60;2.17;;;5.80;99.90;;;;;;5132701;27;20038;-78
2023/04/11 05:04:16;;;;;;;12.73;1.80;;;5.80;99.90;;;;;;5114293;27;20023;-75
2023/04/11 05:06:42;;;;;;;10.65;1.95;;;5.80;99.90;;;;;;5132754;27;20495;-74
2023/04/11 05:09:08;;;;;;;8.70;1.80;;;5.80;99.90;;;;;;5132364;27;20118;-75
2023/04/11 05:11:33;;;;;;;10.60;2.55;;;5.80;99.90;;;;;;5132549;27;20023;-74
2023/04/11 05:13:59;;;;;;;7.82;1.98;;;5.80;99.90;;;;;;5132208;27;20115;-74
2023/04/11 05:16:25;;;;;;;10.57;2.95;;;5.80;99.90;;;;;;5132748;27;20019;-73
2023/04/11 05:18:51;;;;;;;18.25;2.00;;;5.80;99.90;;;;;;5132468;27;20122;-77
2023/04/11 05:21:17;;;;;;;11.10;1.98;;;5.80;99.90;;;;;;5132135;27;20540;-73
2023/04/11 05:23:42;;;;;;;12.02;2.42;;;5.80;99.90;;;;;;5132181;27;20051;-74
2023/04/11 05:26:09;;;;;;;9.32;2.42;;;5.80;99.90;;;;;;5132288;27;20031;-74
2023/04/11 05:28:35;;;;;;;9.32;2.05;;;5.80;99.90;;;;;;5132636;27;20031;-73
2023/04/11 05:31:01;;;;;;;12.50;2.42;;;5.80;99.90;;;;;;5113332;27;20038;-74
2023/04/11 05:33:27;;;;;;;5.78;1.50;;;5.80;99.90;;;;;;5132399;27;20023;-74
2023/04/11 05:35:53;;;;;;;7.07;1.83;;;5.80;99.90;;;;;;5132103;27;20128;-77
2023/04/11 05:38:19;;;;;;;6.30;1.58;;;5.80;99.90;;;;;;5132027;27;20475;-74
2023/04/11 05:40:45;;;;;;;9.95;2.40;;;5.90;99.90;;;;;;5132310;27;20042;-74
2023/04/11 05:43:13;;;;;;;14.20;2.30;;;5.90;99.90;;;;;;5131805;27;20023;-74
2023/04/11 05:45:40;;;;;;;9.57;1.98;;;5.90;99.90;;;;;;5132599;27;20080;-74
2023/04/11 05:48:06;;;;;;;9.35;2.00;;;5.90;99.90;;;;;;5132052;27;20026;-75
2023/04/11 05:50:33;;;;;;;11.77;3.15;;;5.90;99.90;;;;;;5113776;27;20480;-74
2023/04/11 05:52:59;;;;;;;7.75;1.88;;;5.90;99.90;;;;;;5113526;27;20019;-75
2023/04/11 05:55:25;;;;;;;10.43;2.00;;;5.80;99.90;;;;;;5132207;27;20015;-74
2023/04/11 05:57:51;;;;;;;6.40;1.77;;;5.90;99.90;;;;;;5113801;27;20023;-74
2023/04/11 06:00:17;;;;;;;10.05;2.08;;;5.90;99.90;;;;;;5131469;27;20447;-74
2023/04/11 06:02:43;;;;;;;6.80;1.60;;;5.80;99.90;;;;;;5132518;27;20035;-74
2023/04/11 06:05:10;;;;;;;10.60;1.60;;;5.90;99.90;;;;;;5131737;27;20387;-74
2023/04/11 06:07:40;;;;;;;7.72;2.03;;;5.90;99.90;;;;;;5113649;27;20103;-74
2023/04/11 06:10:07;;;;;;;8.85;1.80;;;5.90;99.90;;;;;;5131651;27;20031;-74
2023/04/11 06:12:33;;;;;;;9.85;1.85;;;5.90;99.90;;;;;;5132117;27;20039;-74
2023/04/11 06:14:59;;;;;;;10.90;1.40;;;6.00;99.90;;;;;;5131500;27;20019;-75
2023/04/11 06:17:25;;;;;;;6.30;1.77;;;6.00;99.90;;;;;;5131833;27;20058;-75
2023/04/11 06:19:51;;;;;;;8.75;1.98;;;6.00;99.90;;;;;;5130993;27;20107;-74
2023/04/11 06:22:16;;;;;;;7.68;1.77;;;6.00;99.90;;;;;;5130830;27;20027;-75
2023/04/11 06:24:44;;;;;;;9.73;1.98;;;6.00;99.90;;;;;;5113163;27;20126;-74
2023/04/11 06:27:10;;;;;;;9.05;1.80;;;6.00;99.90;;;;;;5131189;27;20110;-75
2023/04/11 06:29:36;;;;;;;7.43;1.60;;;6.10;99.90;;;;;;5131460;27;20446;-74
2023/04/11 06:32:02;;;;;;;11.60;2.22;;;6.10;99.90;;;;;;5130994;27;20031;-75
2023/04/11 06:34:28;;;;;;;8.07;1.63;;;6.10;99.90;;;;;;5131331;27;20391;-75
2023/04/11 06:36:53;;;;;;;10.43;1.98;;;6.20;99.90;;;;;;5130993;27;20460;-74
2023/04/11 06:39:19;;;;;;;10.13;2.28;;;6.30;99.90;;;;;;5130862;27;20037;-74
2023/04/11 06:41:46;;;;;;;9.30;2.10;;;6.40;99.90;;;;;;5131425;27;20043;-74
2023/04/11 06:44:12;;;;;;;7.75;1.95;;;6.40;99.90;;;;;;5130777;28;20408;-74
2023/04/11 06:46:38;;;;;;;9.25;1.98;;;6.50;99.90;;;;;;5131458;28;20120;-74
2023/04/11 06:49:06;;;;;;;11.55;2.35;;;6.60;99.90;;;;;;5130467;28;20035;-74
2023/04/11 06:51:35;;;;;;;10.88;2.25;;;6.60;99.90;;;;;;5131453;28;20371;-74
2023/04/11 06:54:02;;;;;;;11.68;2.50;;;6.70;99.90;;;;;;5131020;28;20034;-75
2023/04/11 06:56:28;;;;;;;11.52;2.10;;;6.70;99.90;;;;;;5131544;28;20150;-74
2023/04/11 06:58:54;;;;;;;9.80;2.15;;;6.70;99.90;;;;;;5131349;28;20027;-75
2023/04/11 07:01:24;;;;;;;7.70;2.00;;;6.80;99.90;;;;;;5130874;28;20034;-75
2023/04/11 07:03:51;;;;;;;8.40;2.15;;;6.90;99.90;;;;;;5113730;28;20034;-74
2023/04/11 07:06:18;;;;;;;5.40;1.85;;;7.00;99.90;;;;;;5112256;28;20419;-74
2023/04/11 07:08:44;;;;;;;12.23;2.83;;;7.10;99.90;;;;;;5130895;28;20106;-75
2023/04/11 07:11:10;;;;;;;6.90;1.40;;;7.20;99.90;;;;;;5130735;28;20298;-74
2023/04/11 07:13:36;;;;;;;8.73;1.45;;;7.20;99.90;;;;;;5131210;28;20452;-75
2023/04/11 07:16:02;;;;;;;10.15;2.47;;;7.30;99.90;;;;;;5130451;28;20455;-75
2023/04/11 07:18:29;;;;;;;3.88;1.13;;;7.40;99.90;;;;;;5131181;28;20047;-74
2023/04/11 07:20:55;;;;;;;9.68;2.00;;;7.60;99.90;;;;;;5131228;28;20103;-74
2023/04/11 07:23:20;;;;;;;10.07;2.03;;;7.80;99.90;;;;;;5130603;28;20563;-73
2023/04/11 07:25:47;;;;;;;8.27;1.45;;;8.00;99.90;;;;;;5131061;28;20062;-73
2023/04/11 07:28:14;;;;;;;8.98;1.60;;;8.10;99.90;;;;;;5130458;28;20023;-74
2023/04/11 07:30:40;;;;;;;7.13;2.03;;;8.20;99.90;;;;;;5112490;28;20474;-75
2023/04/11 07:33:06;;;;;;;12.90;5.38;;;8.30;99.90;;;;;;5134342;27;20055;-74
2023/04/11 07:35:33;;;;;;;11.25;2.97;;;8.40;99.90;;;;;;5135388;27;20084;-74
2023/04/11 07:38:00;;;;;;;8.68;2.42;;;8.60;99.90;;;;;;5135012;27;20050;-73
2023/04/11 07:40:27;;;;;;;11.65;3.00;;;8.70;99.90;;;;;;5115871;27;20475;-74
2023/04/11 07:42:52;;;;;;;7.38;2.10;;;8.80;99.90;;;;;;5134831;27;20023;-74
2023/04/11 07:45:19;;;;;;;14.88;3.08;;;8.90;99.90;;;;;;5134050;27;20368;-74
2023/04/11 07:47:45;;;;;;;11.73;2.42;;;8.90;99.90;;;;;;5134280;27;20102;-74
2023/04/11 07:50:11;;;;;;;16.92;2.60;;;9.00;99.90;;;;;;5115532;27;20449;-75
2023/04/11 07:52:36;;;;;;;9.25;2.40;;;9.10;99.90;;;;;;5134149;27;20027;-75
2023/04/11 07:55:03;;;;;;;14.45;2.22;;;9.20;99.90;;;;;;5133882;27;20110;-76
2023/04/11 07:57:29;;;;;;;17.13;3.50;;;9.20;99.90;;;;;;5126292;27;20047;-74
2023/04/11 07:59:57;;;;;;;9.07;2.47;;;9.20;99.90;;;;;;5124601;27;20027;-74
2023/04/11 08:02:23;;;;;;;11.77;2.63;;;9.30;99.90;;;;;;5150858;27;20023;-74
2023/04/11 08:04:49;;;;;;;9.55;2.90;;;9.30;99.90;;;;;;5155116;27;20320;-74
2023/04/11 08:07:15;;;;;;;10.48;2.63;;;9.40;99.90;;;;;;5154210;27;20074;-73
2023/04/11 08:09:41;;;;;;;9.25;2.55;;;9.50;99.90;;;;;;5154949;27;20412;-73
2023/04/11 08:12:07;;;;;;;17.27;2.95;;;9.50;99.90;;;;;;5154188;27;20412;-75
2023/04/11 08:14:33;;;;;;;13.77;3.03;;;9.60;99.90;;;;;;5154575;27;20022;-74
2023/04/11 08:16:59;;;;;;;11.45;2.47;;;9.60;99.90;;;;;;5154839;27;20078;-76
2023/04/11 08:19:26;;;;;;;9.57;1.63;;;9.60;99.90;;;;;;5153522;27;20431;-73
2023/04/11 08:21:51;;;;;;;7.05;2.28;;;9.60;99.90;;;;;;5154739;27;20098;-74
2023/04/11 08:24:17;;;;;;;10.52;2.58;;;9.60;99.90;;;;;;5153872;27;20266;-72
2023/04/11 08:26:43;;;;;;;7.80;1.80;;;9.60;99.90;;;;;;5153949;27;20029;-74
2023/04/11 08:29:11;;;;;;;4.53;1.45;;;9.70;99.90;;;;;;5153506;27;20079;-73
2023/04/11 08:31:44;;;;;;;8.95;1.60;;;9.60;99.90;;;;;;5135414;27;20103;-73
2023/04/11 08:34:10;;;;;;;10.77;2.10;;;9.70;99.90;;;;;;5132302;27;20095;-74
2023/04/11 08:36:36;;;;;;;9.07;1.60;;;9.80;99.90;;;;;;5114797;27;20541;-74
2023/04/11 08:39:01;;;;;;;8.40;1.60;;;9.80;99.90;;;;;;5133453;27;20035;-74
2023/04/11 08:41:32;;;;;;;10.40;2.25;;;9.90;99.90;;;;;;5132631;27;20047;-74
2023/04/11 08:43:58;;;;;;;12.52;3.10;;;10.10;99.90;;;;;;5133026;27;20349;-74
2023/04/11 08:46:24;;;;;;;17.42;3.42;;;10.10;99.90;;;;;;5133277;27;20027;-74
2023/04/11 08:48:50;;;;;;;13.25;2.85;;;10.10;99.90;;;;;;5133245;27;20031;-73
2023/04/11 08:51:27;;;;;;;10.98;2.72;;;10.10;99.90;;;;;;5132406;27;20031;-74
2023/04/11 08:53:56;;;;;;;9.93;2.85;;;10.10;99.90;;;;;;5133866;27;20141;-74
2023/04/11 08:56:22;;;;;;;11.55;1.90;;;10.10;99.90;;;;;;5114070;27;20019;-73
2023/04/11 08:58:48;;;;;;;9.45;2.00;;;10.00;99.90;;;;;;5132787;27;20076;-72
2023/04/11 09:01:27;;;;;;;11.95;2.22;;;10.10;99.90;;;;;;5132430;27;20406;-73
2023/04/11 09:03:54;;;;;;;6.88;2.20;;;10.10;99.90;;;;;;5132970;27;20078;-72
2023/04/11 09:06:19;;;;;;;7.57;1.67;;;10.10;99.90;;;;;;5132178;27;20110;-72
2023/04/11 09:08:45;;;;;;;11.10;2.28;;;10.00;99.90;;;;;;5132662;27;20083;-73
2023/04/11 09:11:11;;;;;;;7.95;2.33;;;10.10;99.90;;;;;;5132399;27;20023;-74
2023/04/11 09:13:37;;;;;;;13.82;3.05;;;10.10;99.90;;;;;;5132445;27;20024;-73
2023/04/11 09:16:02;;;;;;;8.88;2.60;;;10.10;99.90;;;;;;5133213;27;20475;-73
2023/04/11 09:18:36;;;;;;;8.82;2.22;;;10.10;99.90;;;;;;5131996;27;20039;-73
2023/04/11 09:21:04;;;;;;;13.50;2.67;;;10.20;99.90;;;;;;5132318;27;20062;-73
2023/04/11 09:23:30;;;;;;;13.10;3.38;;;10.20;99.90;;;;;;5131712;27;20065;-73
2023/04/11 09:25:56;;;;;;;11.40;2.22;;;10.20;99.90;;;;;;5114110;27;20324;-73
2023/04/11 09:28:23;;;;;;;9.95;1.90;;;10.20;99.90;;;;;;5132102;27;20034;-73
2023/04/11 09:30:53;;;;;;;7.30;1.83;;;10.20;99.90;;;;;;5132756;27;20038;-73
2023/04/11 09:33:28;;;;;;;11.10;2.35;;;10.20;99.90;;;;;;5113439;27;20166;-73
2023/04/11 09:35:55;;;;;;;9.60;2.20;;;10.20;99.90;;;;;;5132590;27;20022;-72
2023/04/11 09:38:31;;;;;;;9.57;1.90;;;10.20;99.90;;;;;;5131966;27;20448;-73
2023/04/11 09:40:57;;;;;;;8.23;2.08;;;10.30;99.90;;;;;;5131776;27;20351;-74
2023/04/11 09:43:23;;;;;;;8.43;1.67;;;10.30;99.90;;;;;;5131638;27;20031;-72
2023/04/11 09:46:07;;;;;;;7.18;1.10;;;10.30;99.90;;;;;;5113854;27;20027;-72
2023/04/11 09:48:37;;;;;;;11.18;2.42;;;10.30;99.90;;;;;;5113681;27;20092;-73
2023/04/11 09:51:05;;;;;;;4.93;1.33;;;10.30;99.90;;;;;;5132062;27;20401;-73
2023/04/11 09:53:34;;;;;;;7.03;1.60;;;10.30;99.90;;;;;;5131695;27;20123;-73
2023/04/11 09:56:00;;;;;;;6.63;1.60;;;10.30;99.90;;;;;;5131048;27;20450;-73
2023/04/11 09:58:30;;;;;;;6.05;1.65;;;10.30;99.90;;;;;;5131767;27;20045;-73
2023/04/11 10:00:58;;;;;;;6.47;1.55;;;10.40;99.90;;;;;;5113529;27;20035;-76
2023/04/11 10:03:25;;;;;;;6.00;2.00;;;10.40;99.90;;;;;;5131748;27;20072;-74
2023/04/11 10:05:54;;;;;;;7.50;1.80;;;10.40;99.90;;;;;;5132310;27;20023;-73
2023/04/11 10:08:31;;;;;;;11.57;2.03;;;10.40;99.90;;;;;;5131567;27;20023;-74
2023/04/11 10:11:01;;;;;;;9.80;1.90;;;10.40;99.90;;;;;;5132103;27;20026;-74
2023/04/11 10:13:37;;;;;;;5.53;1.33;;;10.40;99.90;;;;;;5131691;27;20060;-74
2023/04/11 10:16:08;;;;;;;6.72;1.75;;;10.50;99.90;;;;;;5132118;27;20058;-73
2023/04/11 10:18:46;;;;;;;9.63;1.77;;;10.50;99.90;;;;;;5132095;27;20027;-73
2023/04/11 10:21:31;;;;;;;6.90;1.42;;;10.60;99.90;;;;;;5131619;27;20035;-77
2023/04/11 10:24:12;;;;;;;5.82;1.70;;;10.60;99.90;;;;;;5133800;27;20039;-73
2023/04/11 10:26:51;;;;;;;9.45;2.00;;;10.60;99.90;;;;;;5113793;27;20024;-73
2023/04/11 10:32:11;;;;;;;6.15;2.10;;;10.60;99.90;;;;;;5131398;27;20468;-73
2023/04/11 10:34:39;;;;;;;11.38;1.88;;;10.50;99.90;;;;;;5130812;27;20452;-73
2023/04/11 10:37:09;;;;;;;10.80;3.33;;;10.50;99.90;;;;;;5131076;27;20115;-73
2023/04/11 10:39:50;;;;;;;5.30;1.60;;;10.50;99.90;;;;;;5130732;27;20031;-73
2023/04/11 10:42:45;;;;;;;9.32;1.80;;;10.50;99.90;;;;;;5112199;27;20027;-72
2023/04/11 10:45:28;;;;;;;9.35;1.98;;;10.40;99.90;;;;;;5109188;28;20031;-77
2023/04/11 10:47:59;;;;;;;11.10;1.90;;;10.40;99.90;;;;;;5132171;28;20080;-73
2023/04/11 10:50:25;;;;;;;7.90;1.92;;;10.40;99.90;;;;;;5133221;27;20052;-73
2023/04/11 10:52:55;;;;;;;14.15;1.98;;;10.40;99.90;;;;;;5133526;27;20024;-73
2023/04/11 10:55:21;;;;;;;4.95;1.17;;;10.40;99.90;;;;;;5140185;27;20378;-73
2023/04/11 10:58:06;;;;;;;3.53;1.20;;;10.40;99.90;;;;;;5145435;27;20073;-73
2023/04/11 11:00:50;;;;;;;7.45;1.42;;;10.40;99.90;;;;;;5139462;27;20035;-72
2023/04/11 11:03:23;;;;;;;2.95;1.30;;;10.40;99.90;;;;;;5149222;27;20023;-74
2023/04/11 11:06:03;;;;;;;6.80;1.20;;;10.50;99.90;;;;;;5151619;27;20082;-74
2023/04/11 11:08:31;;;;;;;3.42;1.10;;;10.50;99.90;;;;;;5136165;27;20119;-73
2023/04/11 11:11:01;;;;;;;2.50;1.05;;;10.50;99.90;;;;;;5155303;27;20084;-73
2023/04/11 11:13:52;;;;;;;3.30;1.10;;;10.50;99.90;;;;;;5154818;27;20029;-73
2023/04/11 11:16:20;;;;;;;3.45;0.93;;;10.60;99.90;;;;;;5155026;27;20019;-73
2023/04/11 11:18:47;;;;;;;2.40;1.00;;;10.60;99.90;;;;;;5155538;27;20031;-74
2023/04/11 11:21:15;;;;;;;3.30;1.00;;;10.50;99.90;;;;;;5154663;27;20031;-75
2023/04/11 11:23:58;;;;;;;3.15;1.10;;;10.50;99.90;;;;;;5154933;27;20047;-74
2023/04/11 11:26:37;;;;;;;;;;;10.50;99.90;;;;;;5155257;27;20030;-74
2023/04/11 11:29:04;;;;;;;2.80;0.60;;;10.50;99.90;;;;;;5156348;27;19907;-74
2023/04/11 11:31:35;;;;;;;2.47;0.80;;;10.60;99.90;;;;;;5154983;27;20046;-74
2023/04/11 11:34:01;;;;;;;2.40;0.93;;;10.60;99.90;;;;;;5156133;27;20031;-74
2023/04/11 11:36:28;;;;;;;2.88;0.95;;;10.70;99.90;;;;;;5136690;27;20023;-75
2023/04/11 11:38:54;;;;;;;2.10;1.10;;;10.70;99.90;;;;;;5156057;27;20063;-73
2023/04/11 11:41:19;;;;;;;3.10;1.35;;;10.70;99.90;;;;;;5137029;27;20484;-74
2023/04/11 11:43:45;;;;;;;3.63;1.10;;;10.70;99.90;;;;;;5156112;27;20029;-73
2023/04/11 11:46:13;;;;;;;3.55;1.48;;;10.80;99.90;;;;;;5156153;27;20049;-78
2023/04/11 11:48:43;;;;;;;5.07;1.30;;;10.80;99.90;;;;;;5156445;27;20044;-75
2023/04/11 11:51:08;;;;;;;3.30;1.35;;;10.80;99.90;;;;;;5156130;27;20031;-75
2023/04/11 11:53:34;;;;;;;4.40;1.25;;;10.80;99.90;;;;;;5155619;27;20030;-73
2023/04/11 11:56:11;;;;;;;3.72;1.40;;;10.80;99.90;;;;;;5155865;27;20026;-74
2023/04/11 11:58:43;;;;;;;4.28;1.80;;;10.80;99.90;;;;;;5136694;27;20019;-73
2023/04/11 12:01:13;;;;;;;3.45;0.93;;;10.80;99.90;;;;;;5155729;27;20035;-74
2023/04/11 12:03:39;;;;;;;1.23;0.47;;;10.80;99.90;;;;;;5156003;27;20054;-73
2023/04/11 12:06:09;;;;;;;1.50;0.68;;;10.80;99.90;;;;;;5155742;27;20357;-73
2023/04/11 12:08:42;;;;;;;0.77;0.50;;;10.90;99.90;;;;;;5133000;27;20171;-73
2023/04/11 12:11:15;;;;;;;0.40;0.30;;;11.00;99.90;;;;;;5135128;27;20181;-73
2023/04/11 12:13:41;;;;;;;1.85;0.70;;;11.00;99.90;;;;;;5135153;27;20045;-74
2023/04/11 12:16:07;;;;;;;1.38;0.30;;;11.00;99.90;;;;;;5134319;27;20031;-74
2023/04/11 12:18:33;;;;;;;1.63;0.30;;;11.10;99.90;;;;;;5138582;27;20062;-74
2023/04/11 12:20:59;;;;;;;1.15;0.50;;;11.10;99.90;;;;;;5146016;27;20065;-74
2023/04/11 12:23:25;;;;;;;0.95;0.50;;;11.20;99.90;;;;;;5143320;27;20054;-74
2023/04/11 12:25:50;;;;;;;1.42;0.52;;;11.20;99.90;;;;;;5145241;27;20018;-74
2023/04/11 12:28:16;;;;;;;0.40;0.30;;;11.20;99.90;;;;;;5146167;27;20015;-75
2023/04/11 12:30:42;;;;;;;2.85;0.40;;;11.30;99.90;;;;;;5149951;27;20402;-74
2023/04/11 12:33:08;;;;;;;0.98;0.30;;;11.30;99.90;;;;;;5155585;27;20082;-73
2023/04/11 12:35:33;;;;;;;0.75;0.50;;;11.40;99.90;;;;;;5154604;27;20027;-73
2023/04/11 12:37:59;;;;;;;1.25;0.80;;;11.40;99.90;;;;;;5155689;27;20019;-73
2023/04/11 12:40:25;;;;;;;0.93;0.50;;;11.50;99.90;;;;;;5154668;27;20070;-73
2023/04/11 12:42:51;;;;;;;1.75;0.47;;;11.50;99.90;;;;;;5155253;27;20030;-73
2023/04/11 12:45:16;;;;;;;1.50;0.63;;;11.50;99.90;;;;;;5154752;27;20337;-75
2023/04/11 12:47:42;;;;;;;2.28;0.80;;;11.60;99.90;;;;;;5155132;27;20023;-72
2023/04/11 12:50:09;;;;;;;1.73;0.80;;;11.60;99.90;;;;;;5154999;27;20053;-73
2023/04/11 12:52:35;;;;;;;1.05;0.40;;;11.60;99.90;;;;;;5154449;27;20026;-73